Hampstead, United Kingdom
Current Conditions -  °F | °C
As of 11:50 PM on Tuesday 25 Nov 2014 (Local Time) from EGWU Reporting Station
Broken Clouds Broken Clouds  
Wind Chill: 44°   Ceiling: 2100
Heat Index: 46°   Visibility: 2.1mi
Dew Point: 45°   Wind: 6mph
Humidity: 93%   Direction: 60°ENE
Pressure: 29.97"   Gusts: NA
Location:  51.56°N, 0.18°W
Report Text: EGWU 252350Z AUTO 06005KT 3500 // FEW009/// BKN021/// 08/07 Q1015
Loading
Personal Weather Stations






























Interactive Weather Map New forecast layout! Learn more

10-Day Weather Forecast

Advertisements
Track Severe Weather on mobile